sensor_id;sensor_type;location;lat;lon;timestamp;P1;durP1;ratioP1;P2;durP2;ratioP2
38358;SDS011;42072;48.044;14.416;2023-07-20T00:00:14;6.10;;;5.03;;
38358;SDS011;42072;48.044;14.416;2023-07-20T00:02:42;6.28;;;4.63;;
38358;SDS011;42072;48.044;14.416;2023-07-20T00:05:09;7.28;;;4.93;;
38358;SDS011;42072;48.044;14.416;2023-07-20T00:07:36;7.63;;;4.75;;
38358;SDS011;42072;48.044;14.416;2023-07-20T00:10:03;5.55;;;4.57;;
38358;SDS011;42072;48.044;14.416;2023-07-20T00:12:31;7.35;;;5.18;;
38358;SDS011;42072;48.044;14.416;2023-07-20T00:14:58;8.93;;;4.82;;
38358;SDS011;42072;48.044;14.416;2023-07-20T00:17:25;8.15;;;4.95;;
38358;SDS011;42072;48.044;14.416;2023-07-20T00:19:53;6.60;;;4.80;;
38358;SDS011;42072;48.044;14.416;2023-07-20T00:22:20;6.13;;;4.22;;
38358;SDS011;42072;48.044;14.416;2023-07-20T00:24:47;6.35;;;4.55;;
38358;SDS011;42072;48.044;14.416;2023-07-20T00:27:16;7.75;;;4.80;;
38358;SDS011;42072;48.044;14.416;2023-07-20T00:29:43;5.90;;;5.00;;
38358;SDS011;42072;48.044;14.416;2023-07-20T00:32:10;6.10;;;4.90;;
38358;SDS011;42072;48.044;14.416;2023-07-20T00:34:37;7.63;;;4.68;;
38358;SDS011;42072;48.044;14.416;2023-07-20T00:37:04;7.30;;;4.68;;
38358;SDS011;42072;48.044;14.416;2023-07-20T00:39:31;5.22;;;4.20;;
38358;SDS011;42072;48.044;14.416;2023-07-20T00:41:58;7.32;;;4.78;;
38358;SDS011;42072;48.044;14.416;2023-07-20T00:44:26;5.95;;;4.70;;
38358;SDS011;42072;48.044;14.416;2023-07-20T00:46:53;5.32;;;4.00;;
38358;SDS011;42072;48.044;14.416;2023-07-20T00:49:21;8.38;;;4.50;;
38358;SDS011;42072;48.044;14.416;2023-07-20T00:51:50;9.15;;;5.53;;
38358;SDS011;42072;48.044;14.416;2023-07-20T00:54:17;6.47;;;4.60;;
38358;SDS011;42072;48.044;14.416;2023-07-20T00:56:45;8.60;;;4.70;;
38358;SDS011;42072;48.044;14.416;2023-07-20T00:59:13;6.85;;;4.70;;
38358;SDS011;42072;48.044;14.416;2023-07-20T01:01:40;7.57;;;5.03;;
38358;SDS011;42072;48.044;14.416;2023-07-20T01:04:07;8.45;;;4.63;;
38358;SDS011;42072;48.044;14.416;2023-07-20T01:14:34;5.80;;;4.75;;
38358;SDS011;42072;48.044;14.416;2023-07-20T01:17:01;5.97;;;4.55;;
38358;SDS011;42072;48.044;14.416;2023-07-20T01:19:29;7.78;;;4.78;;
38358;SDS011;42072;48.044;14.416;2023-07-20T01:29:54;7.65;;;5.00;;
38358;SDS011;42072;48.044;14.416;2023-07-20T01:32:28;5.80;;;4.80;;
38358;SDS011;42072;48.044;14.416;2023-07-20T01:34:57;9.25;;;4.93;;
38358;SDS011;42072;48.044;14.416;2023-07-20T01:37:26;6.45;;;4.10;;
38358;SDS011;42072;48.044;14.416;2023-07-20T01:39:56;6.18;;;4.35;;
38358;SDS011;42072;48.044;14.416;2023-07-20T01:42:24;6.78;;;4.85;;
38358;SDS011;42072;48.044;14.416;2023-07-20T01:44:51;7.93;;;4.82;;
38358;SDS011;42072;48.044;14.416;2023-07-20T01:47:20;7.05;;;4.50;;
38358;SDS011;42072;48.044;14.416;2023-07-20T01:49:47;6.93;;;4.15;;
38358;SDS011;42072;48.044;14.416;2023-07-20T01:52:14;6.57;;;4.53;;
38358;SDS011;42072;48.044;14.416;2023-07-20T01:54:42;7.68;;;4.72;;
38358;SDS011;42072;48.044;14.416;2023-07-20T01:57:09;7.30;;;4.45;;
38358;SDS011;42072;48.044;14.416;2023-07-20T01:59:36;6.93;;;4.25;;
38358;SDS011;42072;48.044;14.416;2023-07-20T02:02:03;9.48;;;4.65;;
38358;SDS011;42072;48.044;14.416;2023-07-20T02:04:30;7.07;;;4.18;;
38358;SDS011;42072;48.044;14.416;2023-07-20T02:06:57;8.10;;;4.50;;
38358;SDS011;42072;48.044;14.416;2023-07-20T02:09:25;5.72;;;4.45;;
38358;SDS011;42072;48.044;14.416;2023-07-20T02:11:52;5.25;;;3.80;;
38358;SDS011;42072;48.044;14.416;2023-07-20T02:14:19;6.45;;;3.95;;
38358;SDS011;42072;48.044;14.416;2023-07-20T02:16:46;5.75;;;3.70;;
38358;SDS011;42072;48.044;14.416;2023-07-20T02:19:14;6.82;;;3.83;;
38358;SDS011;42072;48.044;14.416;2023-07-20T02:21:41;7.22;;;4.00;;
38358;SDS011;42072;48.044;14.416;2023-07-20T02:24:08;7.38;;;3.80;;
38358;SDS011;42072;48.044;14.416;2023-07-20T02:26:35;4.18;;;3.60;;
38358;SDS011;42072;48.044;14.416;2023-07-20T02:29:02;6.47;;;4.18;;
38358;SDS011;42072;48.044;14.416;2023-07-20T02:31:31;6.45;;;4.22;;
38358;SDS011;42072;48.044;14.416;2023-07-20T02:33:58;7.00;;;4.05;;
38358;SDS011;42072;48.044;14.416;2023-07-20T02:36:25;7.90;;;4.38;;
38358;SDS011;42072;48.044;14.416;2023-07-20T02:38:53;6.20;;;4.28;;
38358;SDS011;42072;48.044;14.416;2023-07-20T02:41:20;5.28;;;4.28;;
38358;SDS011;42072;48.044;14.416;2023-07-20T02:43:47;7.43;;;4.38;;
38358;SDS011;42072;48.044;14.416;2023-07-20T02:46:14;8.48;;;4.40;;
38358;SDS011;42072;48.044;14.416;2023-07-20T02:48:41;7.65;;;4.40;;
38358;SDS011;42072;48.044;14.416;2023-07-20T02:51:08;8.23;;;4.50;;
38358;SDS011;42072;48.044;14.416;2023-07-20T02:53:36;6.60;;;4.97;;
38358;SDS011;42072;48.044;14.416;2023-07-20T02:56:04;9.60;;;4.57;;
38358;SDS011;42072;48.044;14.416;2023-07-20T02:58:33;5.53;;;4.28;;
38358;SDS011;42072;48.044;14.416;2023-07-20T03:01:03;7.03;;;4.22;;
38358;SDS011;42072;48.044;14.416;2023-07-20T03:03:30;7.47;;;4.68;;
38358;SDS011;42072;48.044;14.416;2023-07-20T03:05:58;7.65;;;4.35;;
38358;SDS011;42072;48.044;14.416;2023-07-20T03:08:25;6.35;;;4.43;;
38358;SDS011;42072;48.044;14.416;2023-07-20T03:10:52;6.07;;;4.18;;
38358;SDS011;42072;48.044;14.416;2023-07-20T03:13:21;6.38;;;4.50;;
38358;SDS011;42072;48.044;14.416;2023-07-20T03:15:48;5.47;;;3.90;;
38358;SDS011;42072;48.044;14.416;2023-07-20T03:18:15;5.18;;;3.75;;
38358;SDS011;42072;48.044;14.416;2023-07-20T03:20:42;8.38;;;4.22;;
38358;SDS011;42072;48.044;14.416;2023-07-20T03:23:09;5.15;;;3.83;;
38358;SDS011;42072;48.044;14.416;2023-07-20T03:25:36;8.75;;;4.22;;
38358;SDS011;42072;48.044;14.416;2023-07-20T03:28:04;6.78;;;4.25;;
38358;SDS011;42072;48.044;14.416;2023-07-20T03:30:31;6.18;;;4.07;;
38358;SDS011;42072;48.044;14.416;2023-07-20T03:32:58;8.40;;;4.00;;
38358;SDS011;42072;48.044;14.416;2023-07-20T03:35:25;6.88;;;4.13;;
38358;SDS011;42072;48.044;14.416;2023-07-20T03:37:52;5.53;;;3.78;;
38358;SDS011;42072;48.044;14.416;2023-07-20T03:40:19;5.82;;;4.30;;
38358;SDS011;42072;48.044;14.416;2023-07-20T03:42:47;5.47;;;3.63;;
38358;SDS011;42072;48.044;14.416;2023-07-20T03:45:14;8.27;;;4.30;;
38358;SDS011;42072;48.044;14.416;2023-07-20T03:47:41;5.20;;;3.45;;
38358;SDS011;42072;48.044;14.416;2023-07-20T03:50:08;5.88;;;3.80;;
38358;SDS011;42072;48.044;14.416;2023-07-20T03:52:37;5.53;;;4.05;;
38358;SDS011;42072;48.044;14.416;2023-07-20T03:55:04;6.93;;;3.88;;
38358;SDS011;42072;48.044;14.416;2023-07-20T03:57:31;8.00;;;4.30;;
38358;SDS011;42072;48.044;14.416;2023-07-20T03:59:59;10.43;;;4.47;;
38358;SDS011;42072;48.044;14.416;2023-07-20T04:02:27;7.70;;;4.10;;
38358;SDS011;42072;48.044;14.416;2023-07-20T04:04:54;9.05;;;4.57;;
38358;SDS011;42072;48.044;14.416;2023-07-20T04:07:21;7.80;;;4.20;;
38358;SDS011;42072;48.044;14.416;2023-07-20T04:09:48;6.22;;;4.05;;
38358;SDS011;42072;48.044;14.416;2023-07-20T04:12:15;7.10;;;3.90;;
38358;SDS011;42072;48.044;14.416;2023-07-20T04:14:43;6.50;;;3.97;;
38358;SDS011;42072;48.044;14.416;2023-07-20T04:17:10;5.88;;;3.97;;
38358;SDS011;42072;48.044;14.416;2023-07-20T04:19:39;8.93;;;3.95;;
38358;SDS011;42072;48.044;14.416;2023-07-20T04:22:06;7.63;;;4.07;;
38358;SDS011;42072;48.044;14.416;2023-07-20T04:24:34;8.10;;;4.00;;
38358;SDS011;42072;48.044;14.416;2023-07-20T04:27:01;8.73;;;3.97;;
38358;SDS011;42072;48.044;14.416;2023-07-20T04:29:28;8.55;;;3.90;;
38358;SDS011;42072;48.044;14.416;2023-07-20T04:31:55;7.03;;;4.00;;
38358;SDS011;42072;48.044;14.416;2023-07-20T04:34:23;8.15;;;3.92;;
38358;SDS011;42072;48.044;14.416;2023-07-20T04:36:50;5.93;;;4.15;;
38358;SDS011;42072;48.044;14.416;2023-07-20T04:39:17;7.97;;;3.95;;
38358;SDS011;42072;48.044;14.416;2023-07-20T04:41:57;6.70;;;3.90;;
38358;SDS011;42072;48.044;14.416;2023-07-20T04:44:24;6.80;;;3.92;;
38358;SDS011;42072;48.044;14.416;2023-07-20T04:46:52;6.45;;;4.00;;
38358;SDS011;42072;48.044;14.416;2023-07-20T04:49:19;5.45;;;3.50;;
38358;SDS011;42072;48.044;14.416;2023-07-20T04:51:46;7.57;;;3.60;;
38358;SDS011;42072;48.044;14.416;2023-07-20T04:54:13;5.50;;;3.78;;
38358;SDS011;42072;48.044;14.416;2023-07-20T04:56:40;5.22;;;3.85;;
38358;SDS011;42072;48.044;14.416;2023-07-20T04:59:07;4.65;;;3.55;;
38358;SDS011;42072;48.044;14.416;2023-07-20T05:01:34;5.53;;;3.65;;
38358;SDS011;42072;48.044;14.416;2023-07-20T05:04:02;6.40;;;3.67;;
38358;SDS011;42072;48.044;14.416;2023-07-20T05:06:29;8.90;;;3.42;;
38358;SDS011;42072;48.044;14.416;2023-07-20T05:08:56;3.97;;;3.38;;
38358;SDS011;42072;48.044;14.416;2023-07-20T05:11:24;6.03;;;4.00;;
38358;SDS011;42072;48.044;14.416;2023-07-20T05:13:52;4.38;;;3.80;;
38358;SDS011;42072;48.044;14.416;2023-07-20T05:16:19;7.82;;;4.22;;
38358;SDS011;42072;48.044;14.416;2023-07-20T05:18:47;6.43;;;4.10;;
38358;SDS011;42072;48.044;14.416;2023-07-20T05:21:14;9.20;;;4.00;;
38358;SDS011;42072;48.044;14.416;2023-07-20T05:23:41;5.78;;;3.20;;
38358;SDS011;42072;48.044;14.416;2023-07-20T05:26:08;7.10;;;4.20;;
38358;SDS011;42072;48.044;14.416;2023-07-20T05:28:35;4.35;;;3.45;;
38358;SDS011;42072;48.044;14.416;2023-07-20T05:31:02;4.88;;;3.42;;
38358;SDS011;42072;48.044;14.416;2023-07-20T05:33:30;5.57;;;3.70;;
38358;SDS011;42072;48.044;14.416;2023-07-20T05:35:57;7.00;;;3.40;;
38358;SDS011;42072;48.044;14.416;2023-07-20T05:38:24;7.50;;;3.50;;
38358;SDS011;42072;48.044;14.416;2023-07-20T05:40:51;4.63;;;3.30;;
38358;SDS011;42072;48.044;14.416;2023-07-20T05:43:18;4.80;;;3.60;;
38358;SDS011;42072;48.044;14.416;2023-07-20T05:45:45;6.07;;;4.05;;
38358;SDS011;42072;48.044;14.416;2023-07-20T05:48:14;3.50;;;3.00;;
38358;SDS011;42072;48.044;14.416;2023-07-20T05:50:43;5.38;;;3.40;;
38358;SDS011;42072;48.044;14.416;2023-07-20T05:53:10;5.80;;;3.25;;
38358;SDS011;42072;48.044;14.416;2023-07-20T05:55:37;7.22;;;2.90;;
38358;SDS011;42072;48.044;14.416;2023-07-20T05:58:06;4.47;;;3.08;;
38358;SDS011;42072;48.044;14.416;2023-07-20T06:00:33;6.05;;;3.67;;
38358;SDS011;42072;48.044;14.416;2023-07-20T06:03:00;5.55;;;3.30;;
38358;SDS011;42072;48.044;14.416;2023-07-20T06:05:29;6.05;;;2.88;;
38358;SDS011;42072;48.044;14.416;2023-07-20T06:07:57;5.28;;;3.20;;
38358;SDS011;42072;48.044;14.416;2023-07-20T06:10:24;4.35;;;2.85;;
38358;SDS011;42072;48.044;14.416;2023-07-20T06:12:53;5.65;;;3.30;;
38358;SDS011;42072;48.044;14.416;2023-07-20T06:15:55;5.90;;;3.10;;
38358;SDS011;42072;48.044;14.416;2023-07-20T06:18:14;4.40;;;2.85;;
38358;SDS011;42072;48.044;14.416;2023-07-20T06:20:42;5.32;;;3.13;;
38358;SDS011;42072;48.044;14.416;2023-07-20T06:23:10;5.07;;;3.20;;
38358;SDS011;42072;48.044;14.416;2023-07-20T06:25:37;3.97;;;2.72;;
38358;SDS011;42072;48.044;14.416;2023-07-20T06:28:04;4.75;;;3.05;;
38358;SDS011;42072;48.044;14.416;2023-07-20T06:30:33;5.03;;;3.28;;
38358;SDS011;42072;48.044;14.416;2023-07-20T06:33:00;3.95;;;3.08;;
38358;SDS011;42072;48.044;14.416;2023-07-20T06:35:28;6.97;;;3.15;;
38358;SDS011;42072;48.044;14.416;2023-07-20T06:37:55;4.47;;;2.83;;
38358;SDS011;42072;48.044;14.416;2023-07-20T06:40:22;4.68;;;2.75;;
38358;SDS011;42072;48.044;14.416;2023-07-20T06:42:52;6.75;;;2.60;;
38358;SDS011;42072;48.044;14.416;2023-07-20T06:45:22;5.57;;;2.85;;
38358;SDS011;42072;48.044;14.416;2023-07-20T06:47:49;4.40;;;3.50;;
38358;SDS011;42072;48.044;14.416;2023-07-20T06:50:16;5.05;;;3.42;;
38358;SDS011;42072;48.044;14.416;2023-07-20T06:52:43;5.03;;;2.88;;
38358;SDS011;42072;48.044;14.416;2023-07-20T06:55:11;5.30;;;3.38;;
38358;SDS011;42072;48.044;14.416;2023-07-20T06:57:38;6.50;;;3.38;;
38358;SDS011;42072;48.044;14.416;2023-07-20T07:00:06;4.80;;;3.08;;
38358;SDS011;42072;48.044;14.416;2023-07-20T07:02:35;5.40;;;3.13;;
38358;SDS011;42072;48.044;14.416;2023-07-20T07:05:02;5.35;;;3.25;;
38358;SDS011;42072;48.044;14.416;2023-07-20T07:07:45;6.53;;;3.63;;
38358;SDS011;42072;48.044;14.416;2023-07-20T07:10:13;6.57;;;3.03;;
38358;SDS011;42072;48.044;14.416;2023-07-20T07:12:40;4.47;;;3.42;;
38358;SDS011;42072;48.044;14.416;2023-07-20T07:15:08;5.88;;;3.08;;
38358;SDS011;42072;48.044;14.416;2023-07-20T07:17:37;5.95;;;3.22;;
38358;SDS011;42072;48.044;14.416;2023-07-20T07:20:05;5.78;;;3.08;;
38358;SDS011;42072;48.044;14.416;2023-07-20T07:22:36;6.95;;;3.17;;
38358;SDS011;42072;48.044;14.416;2023-07-20T07:25:03;3.47;;;2.55;;
38358;SDS011;42072;48.044;14.416;2023-07-20T07:27:31;4.85;;;2.67;;
38358;SDS011;42072;48.044;14.416;2023-07-20T07:29:58;5.18;;;3.00;;
38358;SDS011;42072;48.044;14.416;2023-07-20T07:32:25;9.52;;;3.05;;
38358;SDS011;42072;48.044;14.416;2023-07-20T07:34:53;6.03;;;3.00;;
38358;SDS011;42072;48.044;14.416;2023-07-20T07:37:20;4.53;;;3.00;;
38358;SDS011;42072;48.044;14.416;2023-07-20T07:39:48;5.40;;;3.22;;
38358;SDS011;42072;48.044;14.416;2023-07-20T07:42:15;4.88;;;3.50;;
38358;SDS011;42072;48.044;14.416;2023-07-20T07:44:42;4.65;;;3.15;;
38358;SDS011;42072;48.044;14.416;2023-07-20T07:47:10;5.60;;;2.70;;
38358;SDS011;42072;48.044;14.416;2023-07-20T07:49:37;7.85;;;3.17;;
38358;SDS011;42072;48.044;14.416;2023-07-20T07:52:05;6.22;;;3.05;;
38358;SDS011;42072;48.044;14.416;2023-07-20T07:54:32;6.25;;;2.80;;
38358;SDS011;42072;48.044;14.416;2023-07-20T07:57:00;4.57;;;2.83;;
38358;SDS011;42072;48.044;14.416;2023-07-20T07:59:28;4.10;;;2.60;;
38358;SDS011;42072;48.044;14.416;2023-07-20T08:01:56;4.78;;;2.75;;
38358;SDS011;42072;48.044;14.416;2023-07-20T08:04:24;4.85;;;2.60;;
38358;SDS011;42072;48.044;14.416;2023-07-20T08:06:52;8.30;;;2.88;;
38358;SDS011;42072;48.044;14.416;2023-07-20T08:09:19;6.65;;;2.88;;
38358;SDS011;42072;48.044;14.416;2023-07-20T08:11:46;4.75;;;2.80;;
38358;SDS011;42072;48.044;14.416;2023-07-20T08:14:14;6.13;;;2.75;;
38358;SDS011;42072;48.044;14.416;2023-07-20T08:16:42;4.57;;;2.65;;
38358;SDS011;42072;48.044;14.416;2023-07-20T08:19:09;5.28;;;2.50;;
38358;SDS011;42072;48.044;14.416;2023-07-20T08:21:36;3.40;;;2.38;;
38358;SDS011;42072;48.044;14.416;2023-07-20T08:24:04;5.22;;;2.40;;
38358;SDS011;42072;48.044;14.416;2023-07-20T08:26:31;4.55;;;2.38;;
38358;SDS011;42072;48.044;14.416;2023-07-20T08:28:58;5.65;;;2.17;;
38358;SDS011;42072;48.044;14.416;2023-07-20T08:31:25;5.88;;;2.40;;
38358;SDS011;42072;48.044;14.416;2023-07-20T08:33:54;4.28;;;2.08;;
38358;SDS011;42072;48.044;14.416;2023-07-20T08:36:23;2.78;;;2.05;;
38358;SDS011;42072;48.044;14.416;2023-07-20T08:38:51;5.55;;;2.63;;
38358;SDS011;42072;48.044;14.416;2023-07-20T08:41:18;3.83;;;2.47;;
38358;SDS011;42072;48.044;14.416;2023-07-20T08:43:45;5.05;;;2.17;;
38358;SDS011;42072;48.044;14.416;2023-07-20T08:46:13;3.55;;;2.40;;
38358;SDS011;42072;48.044;14.416;2023-07-20T08:48:42;4.72;;;2.10;;
38358;SDS011;42072;48.044;14.416;2023-07-20T08:51:10;4.30;;;2.33;;
38358;SDS011;42072;48.044;14.416;2023-07-20T08:53:39;4.75;;;2.20;;
38358;SDS011;42072;48.044;14.416;2023-07-20T08:56:06;3.92;;;2.35;;
38358;SDS011;42072;48.044;14.416;2023-07-20T08:58:37;5.53;;;2.53;;
38358;SDS011;42072;48.044;14.416;2023-07-20T09:01:05;8.25;;;2.63;;
38358;SDS011;42072;48.044;14.416;2023-07-20T09:03:33;4.93;;;2.63;;
38358;SDS011;42072;48.044;14.416;2023-07-20T09:06:00;3.53;;;2.13;;
38358;SDS011;42072;48.044;14.416;2023-07-20T09:08:28;3.75;;;2.20;;
38358;SDS011;42072;48.044;14.416;2023-07-20T09:10:55;2.83;;;2.00;;
38358;SDS011;42072;48.044;14.416;2023-07-20T09:13:22;5.03;;;2.20;;
38358;SDS011;42072;48.044;14.416;2023-07-20T09:15:53;2.20;;;1.63;;
38358;SDS011;42072;48.044;14.416;2023-07-20T09:18:28;4.28;;;1.67;;
38358;SDS011;42072;48.044;14.416;2023-07-20T09:21:01;5.55;;;2.10;;
38358;SDS011;42072;48.044;14.416;2023-07-20T09:23:30;3.28;;;2.33;;
38358;SDS011;42072;48.044;14.416;2023-07-20T09:25:58;3.45;;;1.95;;
38358;SDS011;42072;48.044;14.416;2023-07-20T09:28:26;3.67;;;1.80;;
38358;SDS011;42072;48.044;14.416;2023-07-20T09:30:56;4.88;;;2.10;;
38358;SDS011;42072;48.044;14.416;2023-07-20T09:33:24;3.70;;;1.98;;
38358;SDS011;42072;48.044;14.416;2023-07-20T09:35:53;4.35;;;1.90;;
38358;SDS011;42072;48.044;14.416;2023-07-20T09:38:22;2.25;;;1.70;;
38358;SDS011;42072;48.044;14.416;2023-07-20T09:40:50;2.95;;;2.10;;
38358;SDS011;42072;48.044;14.416;2023-07-20T09:43:20;3.85;;;1.92;;
38358;SDS011;42072;48.044;14.416;2023-07-20T09:45:50;3.50;;;1.65;;
38358;SDS011;42072;48.044;14.416;2023-07-20T09:48:24;4.85;;;2.33;;
38358;SDS011;42072;48.044;14.416;2023-07-20T09:50:57;4.78;;;2.00;;
38358;SDS011;42072;48.044;14.416;2023-07-20T09:53:25;2.38;;;1.70;;
38358;SDS011;42072;48.044;14.416;2023-07-20T09:55:53;3.47;;;1.60;;
38358;SDS011;42072;48.044;14.416;2023-07-20T09:58:21;8.07;;;2.17;;
38358;SDS011;42072;48.044;14.416;2023-07-20T10:00:48;5.90;;;1.85;;
38358;SDS011;42072;48.044;14.416;2023-07-20T10:03:20;3.65;;;1.90;;
38358;SDS011;42072;48.044;14.416;2023-07-20T10:05:53;5.75;;;1.90;;
38358;SDS011;42072;48.044;14.416;2023-07-20T10:08:26;5.95;;;1.38;;
38358;SDS011;42072;48.044;14.416;2023-07-20T10:10:59;4.03;;;1.80;;
38358;SDS011;42072;48.044;14.416;2023-07-20T10:13:29;2.60;;;1.70;;
38358;SDS011;42072;48.044;14.416;2023-07-20T10:15:59;4.60;;;1.85;;
38358;SDS011;42072;48.044;14.416;2023-07-20T10:18:38;3.47;;;1.90;;
38358;SDS011;42072;48.044;14.416;2023-07-20T10:21:12;3.72;;;1.90;;
38358;SDS011;42072;48.044;14.416;2023-07-20T10:23:42;3.53;;;1.88;;
38358;SDS011;42072;48.044;14.416;2023-07-20T10:26:10;5.88;;;1.83;;
38358;SDS011;42072;48.044;14.416;2023-07-20T10:28:38;2.28;;;1.70;;
38358;SDS011;42072;48.044;14.416;2023-07-20T10:31:09;4.55;;;1.70;;
38358;SDS011;42072;48.044;14.416;2023-07-20T10:33:38;4.07;;;1.90;;
38358;SDS011;42072;48.044;14.416;2023-07-20T10:36:06;6.03;;;1.88;;
38358;SDS011;42072;48.044;14.416;2023-07-20T10:38:40;7.85;;;3.80;;
38358;SDS011;42072;48.044;14.416;2023-07-20T10:44:01;3.70;;;1.98;;
38358;SDS011;42072;48.044;14.416;2023-07-20T10:49:13;3.15;;;1.50;;
38358;SDS011;42072;48.044;14.416;2023-07-20T10:51:48;1.85;;;1.70;;
38358;SDS011;42072;48.044;14.416;2023-07-20T10:56:49;5.10;;;1.95;;
38358;SDS011;42072;48.044;14.416;2023-07-20T10:59:23;4.25;;;1.88;;
38358;SDS011;42072;48.044;14.416;2023-07-20T11:02:08;2.28;;;1.70;;
38358;SDS011;42072;48.044;14.416;2023-07-20T11:04:42;2.53;;;1.85;;
38358;SDS011;42072;48.044;14.416;2023-07-20T11:07:17;4.78;;;2.08;;
38358;SDS011;42072;48.044;14.416;2023-07-20T11:10:13;5.57;;;1.50;;
38358;SDS011;42072;48.044;14.416;2023-07-20T11:15:47;3.08;;;1.83;;
38358;SDS011;42072;48.044;14.416;2023-07-20T11:18:30;4.07;;;1.77;;
38358;SDS011;42072;48.044;14.416;2023-07-20T11:20:59;2.28;;;1.75;;
38358;SDS011;42072;48.044;14.416;2023-07-20T11:23:26;4.38;;;2.00;;
38358;SDS011;42072;48.044;14.416;2023-07-20T11:25:55;3.08;;;1.83;;
38358;SDS011;42072;48.044;14.416;2023-07-20T11:28:22;3.30;;;1.80;;
38358;SDS011;42072;48.044;14.416;2023-07-20T11:30:51;3.08;;;1.75;;
38358;SDS011;42072;48.044;14.416;2023-07-20T11:33:21;8.02;;;1.90;;
38358;SDS011;42072;48.044;14.416;2023-07-20T11:35:48;3.30;;;1.80;;
38358;SDS011;42072;48.044;14.416;2023-07-20T11:38:17;4.88;;;1.88;;
38358;SDS011;42072;48.044;14.416;2023-07-20T11:40:45;4.65;;;2.05;;
38358;SDS011;42072;48.044;14.416;2023-07-20T11:43:13;4.57;;;1.83;;
38358;SDS011;42072;48.044;14.416;2023-07-20T11:45:43;7.20;;;5.07;;
38358;SDS011;42072;48.044;14.416;2023-07-20T11:48:18;3.10;;;1.60;;
38358;SDS011;42072;48.044;14.416;2023-07-20T11:50:45;1.92;;;1.73;;
38358;SDS011;42072;48.044;14.416;2023-07-20T11:53:13;1.98;;;1.77;;
38358;SDS011;42072;48.044;14.416;2023-07-20T11:55:41;1.88;;;1.58;;
38358;SDS011;42072;48.044;14.416;2023-07-20T11:58:09;5.20;;;2.08;;
38358;SDS011;42072;48.044;14.416;2023-07-20T12:00:38;2.80;;;1.50;;
38358;SDS011;42072;48.044;14.416;2023-07-20T12:03:08;5.85;;;1.90;;
38358;SDS011;42072;48.044;14.416;2023-07-20T12:05:39;3.42;;;1.73;;
38358;SDS011;42072;48.044;14.416;2023-07-20T12:08:09;3.63;;;1.65;;
38358;SDS011;42072;48.044;14.416;2023-07-20T12:10:39;2.28;;;1.60;;
38358;SDS011;42072;48.044;14.416;2023-07-20T12:13:10;2.28;;;1.77;;
38358;SDS011;42072;48.044;14.416;2023-07-20T12:15:40;3.10;;;1.70;;
38358;SDS011;42072;48.044;14.416;2023-07-20T12:18:07;2.92;;;1.80;;
38358;SDS011;42072;48.044;14.416;2023-07-20T12:20:35;5.22;;;1.90;;
38358;SDS011;42072;48.044;14.416;2023-07-20T12:25:32;3.92;;;2.15;;
38358;SDS011;42072;48.044;14.416;2023-07-20T12:28:10;2.78;;;2.05;;
38358;SDS011;42072;48.044;14.416;2023-07-20T12:30:40;4.40;;;1.83;;
38358;SDS011;42072;48.044;14.416;2023-07-20T12:33:08;3.10;;;1.70;;
38358;SDS011;42072;48.044;14.416;2023-07-20T12:35:36;2.88;;;1.60;;
38358;SDS011;42072;48.044;14.416;2023-07-20T12:38:03;4.63;;;2.10;;
38358;SDS011;42072;48.044;14.416;2023-07-20T12:40:31;2.47;;;1.85;;
38358;SDS011;42072;48.044;14.416;2023-07-20T12:42:58;3.15;;;1.70;;
38358;SDS011;42072;48.044;14.416;2023-07-20T12:45:25;3.40;;;1.90;;
38358;SDS011;42072;48.044;14.416;2023-07-20T12:47:53;5.40;;;1.38;;
38358;SDS011;42072;48.044;14.416;2023-07-20T12:50:20;4.03;;;1.90;;
38358;SDS011;42072;48.044;14.416;2023-07-20T12:52:47;2.85;;;1.73;;
38358;SDS011;42072;48.044;14.416;2023-07-20T12:55:14;2.25;;;1.60;;
38358;SDS011;42072;48.044;14.416;2023-07-20T12:57:41;4.93;;;2.35;;
38358;SDS011;42072;48.044;14.416;2023-07-20T13:00:09;4.93;;;1.90;;
38358;SDS011;42072;48.044;14.416;2023-07-20T13:02:38;3.60;;;2.03;;
38358;SDS011;42072;48.044;14.416;2023-07-20T13:05:05;4.75;;;1.77;;
38358;SDS011;42072;48.044;14.416;2023-07-20T13:07:35;3.22;;;1.70;;
38358;SDS011;42072;48.044;14.416;2023-07-20T13:10:07;4.00;;;1.42;;
38358;SDS011;42072;48.044;14.416;2023-07-20T13:12:35;5.22;;;2.05;;
38358;SDS011;42072;48.044;14.416;2023-07-20T13:15:03;3.03;;;1.77;;
38358;SDS011;42072;48.044;14.416;2023-07-20T13:17:35;3.88;;;2.00;;
38358;SDS011;42072;48.044;14.416;2023-07-20T13:20:03;4.53;;;1.85;;
38358;SDS011;42072;48.044;14.416;2023-07-20T13:22:32;4.22;;;1.88;;
38358;SDS011;42072;48.044;14.416;2023-07-20T13:24:59;5.28;;;2.10;;
38358;SDS011;42072;48.044;14.416;2023-07-20T13:27:26;3.00;;;1.75;;
38358;SDS011;42072;48.044;14.416;2023-07-20T13:29:53;2.97;;;1.60;;
38358;SDS011;42072;48.044;14.416;2023-07-20T13:32:21;3.92;;;1.92;;
38358;SDS011;42072;48.044;14.416;2023-07-20T13:34:50;2.60;;;2.00;;
38358;SDS011;42072;48.044;14.416;2023-07-20T13:37:17;3.38;;;2.30;;
38358;SDS011;42072;48.044;14.416;2023-07-20T13:39:45;3.40;;;2.22;;
38358;SDS011;42072;48.044;14.416;2023-07-20T13:42:12;4.95;;;1.90;;
38358;SDS011;42072;48.044;14.416;2023-07-20T13:44:40;2.97;;;1.90;;
38358;SDS011;42072;48.044;14.416;2023-07-20T13:47:07;4.10;;;2.63;;
38358;SDS011;42072;48.044;14.416;2023-07-20T13:49:37;3.92;;;1.90;;
38358;SDS011;42072;48.044;14.416;2023-07-20T13:52:13;2.88;;;2.17;;
38358;SDS011;42072;48.044;14.416;2023-07-20T13:54:43;2.60;;;1.85;;
38358;SDS011;42072;48.044;14.416;2023-07-20T13:57:16;3.90;;;1.92;;
38358;SDS011;42072;48.044;14.416;2023-07-20T13:59:44;3.97;;;2.38;;
38358;SDS011;42072;48.044;14.416;2023-07-20T14:02:13;5.35;;;1.92;;
38358;SDS011;42072;48.044;14.416;2023-07-20T14:04:44;3.47;;;1.70;;
38358;SDS011;42072;48.044;14.416;2023-07-20T14:07:12;2.15;;;1.70;;
38358;SDS011;42072;48.044;14.416;2023-07-20T14:09:42;5.13;;;1.90;;
38358;SDS011;42072;48.044;14.416;2023-07-20T14:12:12;3.75;;;1.98;;
38358;SDS011;42072;48.044;14.416;2023-07-20T14:14:43;5.40;;;2.25;;
38358;SDS011;42072;48.044;14.416;2023-07-20T14:17:10;6.82;;;3.65;;
38358;SDS011;42072;48.044;14.416;2023-07-20T14:19:37;2.60;;;1.80;;
38358;SDS011;42072;48.044;14.416;2023-07-20T14:22:05;3.03;;;2.05;;
38358;SDS011;42072;48.044;14.416;2023-07-20T14:24:32;4.25;;;1.70;;
38358;SDS011;42072;48.044;14.416;2023-07-20T14:26:59;3.65;;;1.80;;
38358;SDS011;42072;48.044;14.416;2023-07-20T14:29:27;3.88;;;2.03;;
38358;SDS011;42072;48.044;14.416;2023-07-20T14:31:58;3.47;;;1.75;;
38358;SDS011;42072;48.044;14.416;2023-07-20T14:34:25;2.42;;;1.75;;
38358;SDS011;42072;48.044;14.416;2023-07-20T14:36:52;3.85;;;1.90;;
38358;SDS011;42072;48.044;14.416;2023-07-20T14:39:20;6.22;;;2.28;;
38358;SDS011;42072;48.044;14.416;2023-07-20T14:41:47;3.88;;;2.00;;
38358;SDS011;42072;48.044;14.416;2023-07-20T14:44:16;3.55;;;1.67;;
38358;SDS011;42072;48.044;14.416;2023-07-20T14:46:44;3.20;;;1.80;;
38358;SDS011;42072;48.044;14.416;2023-07-20T14:49:25;4.57;;;2.15;;
38358;SDS011;42072;48.044;14.416;2023-07-20T14:51:52;2.50;;;1.75;;
38358;SDS011;42072;48.044;14.416;2023-07-20T14:54:23;3.50;;;1.95;;
38358;SDS011;42072;48.044;14.416;2023-07-20T14:56:50;3.13;;;1.75;;
38358;SDS011;42072;48.044;14.416;2023-07-20T14:59:19;3.28;;;1.90;;
38358;SDS011;42072;48.044;14.416;2023-07-20T15:01:46;4.15;;;2.10;;
38358;SDS011;42072;48.044;14.416;2023-07-20T15:04:14;2.05;;;1.73;;
38358;SDS011;42072;48.044;14.416;2023-07-20T15:06:42;3.17;;;2.00;;
38358;SDS011;42072;48.044;14.416;2023-07-20T15:09:09;3.50;;;1.90;;